Time,TemperatureF,DewpointF,PressureIn,WindDirection,WindDirectionDegrees,WindSpeedMPH,WindSpeedGustMPH,Humidity,HourlyPrecipIn,Conditions,Clouds,dailyrainin,SoftwareType,DateUTC
2013-07-29 00:00:00,72.5,67.7,30.05,East,96,0.0,0.0,85,0.00,,---,0.00,VWS V14.01,2013-07-29 04:00:00,
2013-07-29 00:01:00,72.6,67.8,30.05,East,96,0.0,0.0,85,0.00,,---,0.00,VWS V14.01,2013-07-29 04:01:00,
2013-07-29 00:02:00,72.6,67.8,30.05,East,96,0.0,0.0,85,0.00,,---,0.00,VWS V14.01,2013-07-29 04:02:00,
2013-07-29 00:07:00,73.1,68.7,30.05,ESE,115,0.0,0.0,86,0.00,,---,0.00,VWS V14.01,2013-07-29 04:07:00,
2013-07-29 00:10:00,73.2,68.8,30.06,East,92,0.0,0.0,86,0.00,,---,0.00,VWS V14.01,2013-07-29 04:10:00,
2013-07-29 00:12:00,73.3,68.5,30.06,East,101,0.0,0.0,85,0.00,,---,0.00,VWS V14.01,2013-07-29 04:12:00,
2013-07-29 00:17:00,73.3,68.5,30.06,East,101,0.0,0.0,85,0.00,,---,0.00,VWS V14.01,2013-07-29 04:17:00,
2013-07-29 00:20:00,73.3,68.5,30.06,East,101,0.0,0.0,85,0.00,,---,0.00,VWS V14.01,2013-07-29 04:20:00,
2013-07-29 00:22:00,73.3,68.5,30.06,East,100,0.0,0.0,85,0.00,,---,0.00,VWS V14.01,2013-07-29 04:22:00,
2013-07-29 00:27:00,73.3,68.5,30.06,East,101,0.0,0.0,85,0.00,,---,0.00,VWS V14.01,2013-07-29 04:27:00,
2013-07-29 00:30:00,73.3,68.5,30.06,ESE,103,0.0,0.0,85,0.00,,---,0.00,VWS V14.01,2013-07-29 04:30:00,
2013-07-29 00:32:00,73.3,68.5,30.06,ESE,103,0.0,0.0,85,0.00,,---,0.00,VWS V14.01,2013-07-29 04:32:00,
2013-07-29 00:37:00,73.4,68.6,30.06,SE,125,0.0,0.0,85,0.00,,---,0.00,VWS V14.01,2013-07-29 04:37:00,
2013-07-29 00:40:00,73.4,68.6,30.06,SE,126,0.0,0.0,85,0.00,,---,0.00,VWS V14.01,2013-07-29 04:40:00,
2013-07-29 00:42:00,73.4,68.6,30.06,SE,124,0.0,0.0,85,0.00,,---,0.00,VWS V14.01,2013-07-29 04:42:00,
2013-07-29 00:47:00,73.4,68.6,30.06,SE,124,0.0,0.0,85,0.00,,---,0.00,VWS V14.01,2013-07-29 04:47:00,
2013-07-29 00:50:00,73.4,68.6,30.05,SE,124,0.0,0.0,85,0.00,,---,0.00,VWS V14.01,2013-07-29 04:50:00,
2013-07-29 00:52:00,73.4,68.6,30.05,SE,124,0.0,0.0,85,0.00,,---,0.00,VWS V14.01,2013-07-29 04:52:00,
2013-07-29 00:57:00,73.3,68.5,30.05,SE,124,0.0,0.0,85,0.00,,---,0.00,VWS V14.01,2013-07-29 04:57:00,
2013-07-29 01:00:00,73.2,68.4,30.05,SE,124,0.0,0.0,85,0.00,,---,0.00,VWS V14.01,2013-07-29 05:00:00,
2013-07-29 01:02:00,73.2,68.4,30.05,SE,124,0.0,0.0,85,0.00,,---,0.00,VWS V14.01,2013-07-29 05:02:00,
2013-07-29 01:07:00,73.1,68.3,30.05,SE,124,0.0,0.0,85,0.00,,---,0.00,VWS V14.01,2013-07-29 05:07:00,
2013-07-29 01:10:00,73.1,68.3,30.05,SE,124,0.0,0.0,85,0.00,,---,0.00,VWS V14.01,2013-07-29 05:10:00,
2013-07-29 01:12:00,73.1,68.3,30.05,SE,124,0.0,0.0,85,0.00,,---,0.00,VWS V14.01,2013-07-29 05:12:00,
2013-07-29 01:17:00,72.9,68.1,30.05,SE,124,0.0,0.0,85,0.00,,---,0.00,VWS V14.01,2013-07-29 05:17:00,
2013-07-29 01:20:00,72.8,68.0,30.05,SE,124,0.0,0.0,85,0.00,,---,0.00,VWS V14.01,2013-07-29 05:20:00,
2013-07-29 01:22:00,72.8,68.0,30.05,SE,124,0.0,0.0,85,0.00,,---,0.00,VWS V14.01,2013-07-29 05:22:00,
2013-07-29 01:27:00,72.7,67.9,30.05,SE,124,0.0,0.0,85,0.00,,---,0.00,VWS V14.01,2013-07-29 05:27:00,
2013-07-29 01:30:00,72.7,67.9,30.05,SE,124,0.0,0.0,85,0.00,,---,0.00,VWS V14.01,2013-07-29 05:30:00,
2013-07-29 01:32:00,72.7,67.9,30.05,SE,124,0.0,0.0,85,0.00,,---,0.00,VWS V14.01,2013-07-29 05:32:00,
2013-07-29 01:37:00,72.8,68.0,30.05,SE,124,0.0,0.0,85,0.00,,---,0.00,VWS V14.01,2013-07-29 05:37:00,
2013-07-29 01:40:00,72.8,68.4,30.05,SE,124,0.0,0.0,86,0.00,,---,0.00,VWS V14.01,2013-07-29 05:40:00,
2013-07-29 01:42:00,72.9,68.5,30.05,SE,124,0.0,0.0,86,0.00,,---,0.00,VWS V14.01,2013-07-29 05:42:00,
2013-07-29 01:47:00,73.0,68.6,30.05,SE,124,0.0,0.0,86,0.00,,---,0.00,VWS V14.01,2013-07-29 05:47:00,
2013-07-29 01:50:00,73.0,68.6,30.05,SE,124,0.0,0.0,86,0.00,,---,0.00,VWS V14.01,2013-07-29 05:50:00,
2013-07-29 01:52:00,73.0,68.6,30.05,SE,124,0.0,0.0,86,0.00,,---,0.00,VWS V14.01,2013-07-29 05:52:00,
2013-07-29 01:57:00,73.1,68.7,30.05,SE,124,0.0,0.0,86,0.00,,---,0.00,VWS V14.01,2013-07-29 05:57:00,
2013-07-29 02:00:00,73.1,68.7,30.05,SE,124,0.0,0.0,86,0.00,,---,0.00,VWS V14.01,2013-07-29 06:00:00,
2013-07-29 02:02:00,73.0,68.6,30.05,SE,124,0.0,0.0,86,0.00,,---,0.00,VWS V14.01,2013-07-29 06:02:00,
2013-07-29 02:07:00,72.9,68.5,30.04,SE,124,0.0,0.0,86,0.00,,---,0.00,VWS V14.01,2013-07-29 06:07:00,
2013-07-29 02:10:00,72.9,68.5,30.04,SE,124,0.0,0.0,86,0.00,,---,0.00,VWS V14.01,2013-07-29 06:10:00,
2013-07-29 02:12:00,72.9,68.5,30.04,SE,124,0.0,0.0,86,0.00,,---,0.00,VWS V14.01,2013-07-29 06:12:00,
2013-07-29 02:17:00,72.8,68.4,30.04,SE,124,0.0,0.0,86,0.00,,---,0.00,VWS V14.01,2013-07-29 06:17:00,
2013-07-29 02:20:00,72.8,68.4,30.04,SE,124,0.0,0.0,86,0.00,,---,0.00,VWS V14.01,2013-07-29 06:20:00,
2013-07-29 02:22:00,72.9,68.5,30.04,SE,124,0.0,0.0,86,0.00,,---,0.00,VWS V14.01,2013-07-29 06:22:00,
2013-07-29 02:27:00,72.9,68.5,30.04,SE,124,0.0,0.0,86,0.00,,---,0.00,VWS V14.01,2013-07-29 06:27:00,
2013-07-29 02:30:00,72.9,68.5,30.04,SE,124,0.0,0.0,86,0.00,,---,0.00,VWS V14.01,2013-07-29 06:30:00,
2013-07-29 02:32:00,72.9,68.5,30.03,SE,124,0.0,0.0,86,0.00,,---,0.00,VWS V14.01,2013-07-29 06:32:00,
2013-07-29 02:37:00,72.7,68.3,30.03,SE,124,0.0,0.0,86,0.00,,---,0.00,VWS V14.01,2013-07-29 06:37:00,
2013-07-29 02:40:00,72.7,67.9,30.03,SE,124,0.0,0.0,85,0.00,,---,0.00,VWS V14.01,2013-07-29 06:40:00,
2013-07-29 02:42:00,72.6,68.2,30.03,SE,124,0.0,0.0,86,0.00,,---,0.00,VWS V14.01,2013-07-29 06:42:00,
2013-07-29 02:47:00,72.6,68.2,30.03,SE,124,0.0,0.0,86,0.00,,---,0.00,VWS V14.01,2013-07-29 06:47:00,
2013-07-29 02:50:00,72.5,68.1,30.03,SE,124,0.0,0.0,86,0.00,,---,0.00,VWS V14.01,2013-07-29 06:50:00,
2013-07-29 02:52:00,72.5,68.1,30.03,SE,124,0.0,0.0,86,0.00,,---,0.00,VWS V14.01,2013-07-29 06:52:00,
2013-07-29 02:57:00,72.4,68.0,30.03,SE,124,0.0,0.0,86,0.00,,---,0.00,VWS V14.01,2013-07-29 06:57:00,
2013-07-29 03:00:00,72.4,68.0,30.03,SE,124,0.0,0.0,86,0.00,,---,0.00,VWS V14.01,2013-07-29 07:00:00,
2013-07-29 03:02:00,72.4,68.0,30.03,SE,124,0.0,0.0,86,0.00,,---,0.00,VWS V14.01,2013-07-29 07:02:00,
2013-07-29 03:07:00,72.3,67.9,30.03,SE,124,0.0,0.0,86,0.00,,---,0.00,VWS V14.01,2013-07-29 07:07:00,
2013-07-29 03:10:00,72.3,67.9,30.03,SE,124,0.0,0.0,86,0.00,,---,0.00,VWS V14.01,2013-07-29 07:10:00,
2013-07-29 03:12:00,72.2,67.8,30.03,SE,124,0.0,0.0,86,0.00,,---,0.00,VWS V14.01,2013-07-29 07:12:00,
2013-07-29 03:17:00,72.2,67.8,30.02,SE,124,0.0,0.0,86,0.00,,---,0.00,VWS V14.01,2013-07-29 07:17:00,
2013-07-29 03:20:00,72.2,67.8,30.02,SE,124,0.0,0.0,86,0.00,,---,0.00,VWS V14.01,2013-07-29 07:20:00,
2013-07-29 03:22:00,72.1,67.7,30.02,SE,124,0.0,0.0,86,0.00,,---,0.00,VWS V14.01,2013-07-29 07:22:00,
2013-07-29 03:27:00,72.2,67.8,30.02,SE,124,0.0,0.0,86,0.00,,---,0.00,VWS V14.01,2013-07-29 07:27:00,
2013-07-29 03:30:00,72.2,67.8,30.02,SE,124,0.0,0.0,86,0.00,,---,0.00,VWS V14.01,2013-07-29 07:30:00,
2013-07-29 03:32:00,72.2,67.8,30.02,SE,124,0.0,0.0,86,0.00,,---,0.00,VWS V14.01,2013-07-29 07:32:00,
2013-07-29 03:37:00,72.1,67.7,30.02,SE,124,0.0,0.0,86,0.00,,---,0.00,VWS V14.01,2013-07-29 07:37:00,
2013-07-29 03:40:00,72.1,67.7,30.02,SE,124,0.0,0.0,86,0.00,,---,0.00,VWS V14.01,2013-07-29 07:40:00,
2013-07-29 03:42:00,72.2,67.8,30.01,SE,124,0.0,0.0,86,0.00,,---,0.00,VWS V14.01,2013-07-29 07:42:00,
2013-07-29 03:47:00,72.2,67.8,30.02,SE,124,0.0,0.0,86,0.00,,---,0.00,VWS V14.01,2013-07-29 07:47:00,
2013-07-29 03:50:00,72.2,67.8,30.02,SE,124,0.0,0.0,86,0.00,,---,0.00,VWS V14.01,2013-07-29 07:50:00,
2013-07-29 03:52:00,72.2,67.8,30.02,SE,124,0.0,0.0,86,0.00,,---,0.00,VWS V14.01,2013-07-29 07:52:00,
2013-07-29 03:57:00,72.1,67.7,30.02,SE,124,0.0,0.0,86,0.00,,---,0.00,VWS V14.01,2013-07-29 07:57:00,
2013-07-29 04:00:00,72.1,67.7,30.02,SE,124,0.0,0.0,86,0.00,,---,0.00,VWS V14.01,2013-07-29 08:00:00,
2013-07-29 04:02:00,72.0,67.6,30.02,SE,124,0.0,0.0,86,0.00,,---,0.00,VWS V14.01,2013-07-29 08:02:00,
2013-07-29 04:07:00,72.0,67.6,30.02,SE,124,0.0,0.0,86,0.00,,---,0.00,VWS V14.01,2013-07-29 08:07:00,
2013-07-29 04:10:00,71.9,67.5,30.02,SE,124,0.0,0.0,86,0.00,,---,0.00,VWS V14.01,2013-07-29 08:10:00,
2013-07-29 04:12:00,71.7,67.3,30.02,SE,124,0.0,0.0,86,0.00,,---,0.00,VWS V14.01,2013-07-29 08:12:00,
2013-07-29 04:17:00,71.6,67.2,30.02,SE,124,0.0,0.0,86,0.00,,---,0.00,VWS V14.01,2013-07-29 08:17:00,
2013-07-29 04:20:00,71.6,67.2,30.02,SE,124,0.0,0.0,86,0.00,,---,0.00,VWS V14.01,2013-07-29 08:20:00,
2013-07-29 04:23:00,71.4,67.0,30.02,SE,124,0.0,0.0,86,0.00,,---,0.00,VWS V14.01,2013-07-29 08:23:00,
2013-07-29 04:28:00,71.2,66.8,30.02,SE,124,0.0,0.0,86,0.00,,---,0.00,VWS V14.01,2013-07-29 08:28:00,
2013-07-29 04:30:00,71.2,66.8,30.02,SE,124,0.0,0.0,86,0.00,,---,0.00,VWS V14.01,2013-07-29 08:30:00,
2013-07-29 04:32:00,71.0,66.6,30.02,SE,124,0.0,0.0,86,0.00,,---,0.00,VWS V14.01,2013-07-29 08:32:00,
2013-07-29 04:38:00,70.9,66.5,30.03,SE,124,0.0,0.0,86,0.00,,---,0.00,VWS V14.01,2013-07-29 08:38:00,
2013-07-29 04:40:00,70.9,66.5,30.03,SE,124,0.0,0.0,86,0.00,,---,0.00,VWS V14.01,2013-07-29 08:40:00,
2013-07-29 04:43:00,70.8,66.4,30.03,SE,124,0.0,0.0,86,0.00,,---,0.00,VWS V14.01,2013-07-29 08:43:00,
2013-07-29 04:48:00,70.8,66.4,30.03,SE,124,0.0,0.0,86,0.00,,---,0.00,VWS V14.01,2013-07-29 08:48:00,
2013-07-29 04:50:00,70.8,66.4,30.03,SE,124,0.0,0.0,86,0.00,,---,0.00,VWS V14.01,2013-07-29 08:50:00,
2013-07-29 04:53:00,71.1,66.7,30.03,SE,124,0.0,0.0,86,0.00,,---,0.00,VWS V14.01,2013-07-29 08:53:00,
2013-07-29 04:58:00,71.0,66.6,30.03,SE,124,0.0,0.0,86,0.00,,---,0.00,VWS V14.01,2013-07-29 08:58:00,
2013-07-29 05:00:00,71.0,66.6,30.03,SE,124,0.0,0.0,86,0.00,,---,0.00,VWS V14.01,2013-07-29 09:00:00,
2013-07-29 05:03:00,71.0,66.6,30.03,SE,124,0.0,0.0,86,0.00,,---,0.00,VWS V14.01,2013-07-29 09:03:00,
2013-07-29 05:08:00,71.0,66.6,30.03,SE,124,0.0,0.0,86,0.00,,---,0.00,VWS V14.01,2013-07-29 09:08:00,
2013-07-29 05:10:00,71.0,66.6,30.03,SE,124,0.0,0.0,86,0.00,,---,0.00,VWS V14.01,2013-07-29 09:10:00,
2013-07-29 05:13:00,70.9,66.5,30.03,SE,124,0.0,0.0,86,0.00,,---,0.00,VWS V14.01,2013-07-29 09:13:00,
2013-07-29 05:18:00,70.8,66.4,30.04,SE,124,0.0,0.0,86,0.00,,---,0.00,VWS V14.01,2013-07-29 09:18:00,
2013-07-29 05:20:00,70.8,66.4,30.04,SE,124,0.0,0.0,86,0.00,,---,0.00,VWS V14.01,2013-07-29 09:20:00,
2013-07-29 05:23:00,70.7,66.3,30.04,SE,124,0.0,0.0,86,0.00,,---,0.00,VWS V14.01,2013-07-29 09:23:00,
2013-07-29 05:28:00,70.6,66.2,30.04,SE,124,0.0,0.0,86,0.00,,---,0.00,VWS V14.01,2013-07-29 09:28:00,
2013-07-29 05:30:00,70.6,66.2,30.04,SE,124,0.0,0.0,86,0.00,,---,0.00,VWS V14.01,2013-07-29 09:30:00,
2013-07-29 05:33:00,70.5,66.1,30.04,SE,124,0.0,0.0,86,0.00,,---,0.00,VWS V14.01,2013-07-29 09:33:00,
2013-07-29 05:38:00,70.4,66.0,30.04,SE,124,0.0,0.0,86,0.00,,---,0.00,VWS V14.01,2013-07-29 09:38:00,
2013-07-29 05:40:00,70.5,66.1,30.04,SE,124,0.0,0.0,86,0.00,,---,0.00,VWS V14.01,2013-07-29 09:40:00,
2013-07-29 05:43:00,70.5,66.1,30.05,SE,124,0.0,0.0,86,0.00,,---,0.00,VWS V14.01,2013-07-29 09:43:00,
2013-07-29 05:48:00,70.5,66.4,30.05,SE,124,0.0,0.0,87,0.00,,---,0.00,VWS V14.01,2013-07-29 09:48:00,
2013-07-29 05:50:00,70.5,66.4,30.05,SE,124,0.0,0.0,87,0.00,,---,0.00,VWS V14.01,2013-07-29 09:50:00,
2013-07-29 05:53:00,70.5,66.1,30.05,SE,124,0.0,0.0,86,0.00,,---,0.00,VWS V14.01,2013-07-29 09:53:00,
2013-07-29 05:58:00,70.3,65.9,30.05,SE,124,0.0,0.0,86,0.00,,---,0.00,VWS V14.01,2013-07-29 09:58:00,
2013-07-29 06:00:00,70.4,66.0,30.05,SE,124,0.0,0.0,86,0.00,,---,0.00,VWS V14.01,2013-07-29 10:00:00,
2013-07-29 06:03:00,70.3,65.9,30.05,SE,124,0.0,0.0,86,0.00,,---,0.00,VWS V14.01,2013-07-29 10:03:00,
2013-07-29 06:08:00,70.3,66.2,30.05,SE,124,0.0,0.0,87,0.00,,---,0.00,VWS V14.01,2013-07-29 10:08:00,
2013-07-29 06:10:00,70.2,66.2,30.05,SE,124,0.0,0.0,87,0.00,,---,0.00,VWS V14.01,2013-07-29 10:10:00,
2013-07-29 06:13:00,70.6,66.6,30.05,SE,124,0.0,0.0,87,0.00,,---,0.00,VWS V14.01,2013-07-29 10:13:00,
2013-07-29 06:18:00,70.5,66.4,30.05,SE,124,0.0,0.0,87,0.00,,---,0.00,VWS V14.01,2013-07-29 10:18:00,
2013-07-29 06:20:00,70.5,66.4,30.05,SE,124,0.0,0.0,87,0.00,,---,0.00,VWS V14.01,2013-07-29 10:20:00,
2013-07-29 06:23:00,70.4,66.3,30.05,SE,124,0.0,0.0,87,0.00,,---,0.00,VWS V14.01,2013-07-29 10:23:00,
2013-07-29 06:28:00,70.3,66.2,30.06,SE,124,0.0,0.0,87,0.00,,---,0.00,VWS V14.01,2013-07-29 10:28:00,
2013-07-29 06:30:00,70.3,66.2,30.06,SE,124,0.0,0.0,87,0.00,,---,0.00,VWS V14.01,2013-07-29 10:30:00,
2013-07-29 06:33:00,70.5,66.4,30.06,SE,124,0.0,0.0,87,0.00,,---,0.00,VWS V14.01,2013-07-29 10:33:00,
2013-07-29 06:38:00,70.5,66.4,30.06,SE,124,0.0,0.0,87,0.00,,---,0.00,VWS V14.01,2013-07-29 10:38:00,
2013-07-29 06:40:00,70.6,66.6,30.06,SE,124,0.0,0.0,87,0.00,,---,0.00,VWS V14.01,2013-07-29 10:40:00,
2013-07-29 06:43:00,70.4,66.3,30.06,SE,124,0.0,0.0,87,0.00,,---,0.00,VWS V14.01,2013-07-29 10:43:00,
2013-07-29 06:49:00,70.3,66.2,30.06,SE,124,0.0,0.0,87,0.00,,---,0.00,VWS V14.01,2013-07-29 10:49:00,
2013-07-29 06:50:00,70.3,66.2,30.06,SE,124,0.0,0.0,87,0.00,,---,0.00,VWS V14.01,2013-07-29 10:50:00,
2013-07-29 06:54:00,70.2,66.2,30.06,SE,124,0.0,0.0,87,0.00,,---,0.00,VWS V14.01,2013-07-29 10:54:00,
2013-07-29 06:59:00,70.2,66.2,30.06,SE,124,0.0,0.0,87,0.00,,---,0.00,VWS V14.01,2013-07-29 10:59:00,
2013-07-29 07:00:00,70.2,66.2,30.06,SE,124,0.0,0.0,87,0.00,,---,0.00,VWS V14.01,2013-07-29 11:00:00,
2013-07-29 07:04:00,70.5,66.4,30.06,SE,124,0.0,0.0,87,0.00,,---,0.00,VWS V14.01,2013-07-29 11:04:00,
2013-07-29 07:09:00,70.6,66.6,30.06,SE,124,0.0,0.0,87,0.00,,---,0.00,VWS V14.01,2013-07-29 11:09:00,
2013-07-29 07:10:00,70.6,66.6,30.06,SE,124,0.0,0.0,87,0.00,,---,0.00,VWS V14.01,2013-07-29 11:10:00,
2013-07-29 07:14:00,70.9,66.8,30.07,SE,124,0.0,0.0,87,0.00,,---,0.00,VWS V14.01,2013-07-29 11:14:00,
2013-07-29 07:20:00,71.7,67.6,30.07,SE,124,0.0,0.0,87,0.00,,---,0.00,VWS V14.01,2013-07-29 11:20:00,
2013-07-29 07:25:00,73.0,68.9,30.07,SE,124,0.0,0.0,87,0.00,,---,0.00,VWS V14.01,2013-07-29 11:25:00,
2013-07-29 07:30:00,73.9,69.8,30.08,SE,124,0.0,0.0,87,0.00,,---,0.00,VWS V14.01,2013-07-29 11:30:00,
2013-07-29 07:35:00,74.6,70.1,30.08,SE,124,0.0,0.0,86,0.00,,---,0.00,VWS V14.01,2013-07-29 11:35:00,
2013-07-29 07:40:00,75.6,71.1,30.08,SE,124,0.0,0.0,86,0.00,,---,0.00,VWS V14.01,2013-07-29 11:40:00,
2013-07-29 07:45:00,76.1,71.6,30.08,SE,124,0.0,0.0,86,0.00,,---,0.00,VWS V14.01,2013-07-29 11:45:00,
2013-07-29 07:50:00,77.1,72.6,30.08,SE,124,0.0,0.0,86,0.00,,---,0.00,VWS V14.01,2013-07-29 11:50:00,
2013-07-29 07:55:00,77.7,73.2,30.08,SE,124,0.0,0.0,86,0.00,,---,0.00,VWS V14.01,2013-07-29 11:55:00,
2013-07-29 08:00:00,77.9,73.0,30.08,SE,124,0.0,0.0,85,0.00,,---,0.00,VWS V14.01,2013-07-29 12:00:00,
2013-07-29 08:05:00,78.6,73.4,30.08,SE,124,0.0,0.0,84,0.00,,---,0.00,VWS V14.01,2013-07-29 12:05:00,
2013-07-29 08:10:00,79.2,73.9,30.08,SE,124,0.0,0.0,84,0.00,,---,0.00,VWS V14.01,2013-07-29 12:10:00,
2013-07-29 08:15:00,79.9,74.6,30.09,SE,124,0.0,0.0,84,0.00,,---,0.00,VWS V14.01,2013-07-29 12:15:00,
2013-07-29 08:20:00,80.6,75.0,30.09,SE,124,0.0,0.0,83,0.00,,---,0.00,VWS V14.01,2013-07-29 12:20:00,
2013-07-29 08:25:00,80.9,74.9,30.09,SE,124,0.0,0.0,82,0.00,,---,0.00,VWS V14.01,2013-07-29 12:25:00,
2013-07-29 08:30:00,82.0,75.6,30.09,SE,124,0.0,0.0,81,0.00,,---,0.00,VWS V14.01,2013-07-29 12:30:00,
2013-07-29 08:35:00,82.5,75.7,30.09,SE,124,0.0,0.0,80,0.00,,---,0.00,VWS V14.01,2013-07-29 12:35:00,
2013-07-29 08:40:00,81.9,74.8,30.09,ESE,123,0.0,0.0,79,0.00,,---,0.00,VWS V14.01,2013-07-29 12:40:00,
2013-07-29 08:45:00,81.6,74.8,30.09,ESE,122,0.0,0.0,80,0.00,,---,0.00,VWS V14.01,2013-07-29 12:45:00,
2013-07-29 08:50:00,81.6,75.2,30.09,SE,124,0.0,0.0,81,0.00,,---,0.00,VWS V14.01,2013-07-29 12:50:00,
2013-07-29 08:51:00,81.5,74.4,30.10,SSW,200,0.0,0.0,79,0.00,,---,0.00,VWS V14.01,2013-07-29 12:51:00,
2013-07-29 08:56:00,81.0,73.9,30.10,SSW,200,0.0,0.0,79,0.00,,---,0.00,VWS V14.01,2013-07-29 12:56:00,
2013-07-29 09:00:00,81.0,74.2,30.10,SSW,200,0.0,0.0,80,0.00,,---,0.00,VWS V14.01,2013-07-29 13:00:00,
2013-07-29 09:01:00,81.0,74.2,30.10,SSW,200,0.0,0.0,80,0.00,,---,0.00,VWS V14.01,2013-07-29 13:01:00,
2013-07-29 09:06:00,81.6,75.2,30.10,SSW,200,0.0,0.0,81,0.00,,---,0.00,VWS V14.01,2013-07-29 13:06:00,
2013-07-29 09:10:00,82.2,75.4,30.10,SSW,200,0.0,0.0,80,0.00,,---,0.00,VWS V14.01,2013-07-29 13:10:00,
2013-07-29 09:11:00,82.6,75.4,30.10,SSW,200,0.0,0.0,79,0.00,,---,0.00,VWS V14.01,2013-07-29 13:11:00,
2013-07-29 09:16:00,82.7,75.2,30.10,West,274,0.0,0.0,78,0.00,,---,0.00,VWS V14.01,2013-07-29 13:16:00,
2013-07-29 09:20:00,82.8,75.6,30.10,West,274,0.0,0.0,79,0.00,,---,0.00,VWS V14.01,2013-07-29 13:20:00,
2013-07-29 09:22:00,83.2,76.0,30.10,West,274,0.0,0.0,79,0.00,,---,0.00,VWS V14.01,2013-07-29 13:22:00,
2013-07-29 09:26:00,84.0,75.6,30.10,West,274,0.0,0.0,76,0.00,,---,0.00,VWS V14.01,2013-07-29 13:26:00,
2013-07-29 09:30:00,84.2,76.6,30.10,West,274,0.0,0.0,78,0.00,,---,0.00,VWS V14.01,2013-07-29 13:30:00,
2013-07-29 09:32:00,84.6,76.6,30.10,NE,50,0.0,0.0,77,0.00,,---,0.00,VWS V14.01,2013-07-29 13:32:00,
2013-07-29 09:37:00,85.4,76.6,30.10,NE,49,0.0,0.0,75,0.00,,---,0.00,VWS V14.01,2013-07-29 13:37:00,
2013-07-29 09:40:00,85.4,76.6,30.10,NE,34,0.0,0.0,75,0.00,,---,0.00,VWS V14.01,2013-07-29 13:40:00,
2013-07-29 09:42:00,85.6,77.2,30.10,NE,34,0.0,0.0,76,0.00,,---,0.00,VWS V14.01,2013-07-29 13:42:00,
2013-07-29 09:47:00,85.6,76.4,30.10,NW,322,0.0,0.0,74,0.00,,---,0.00,VWS V14.01,2013-07-29 13:47:00,
2013-07-29 09:50:00,85.6,76.8,30.10,NW,320,0.0,0.0,75,0.00,,---,0.00,VWS V14.01,2013-07-29 13:50:00,
2013-07-29 09:52:00,85.8,76.6,30.10,NW,320,0.0,0.0,74,0.00,,---,0.00,VWS V14.01,2013-07-29 13:52:00,
2013-07-29 09:57:00,85.9,76.7,30.10,West,273,0.0,0.0,74,0.00,,---,0.00,VWS V14.01,2013-07-29 13:57:00,
2013-07-29 10:00:00,85.8,76.6,30.10,West,273,0.0,0.0,74,0.00,,---,0.00,VWS V14.01,2013-07-29 14:00:00,
2013-07-29 10:02:00,85.9,77.1,30.10,West,274,0.0,0.0,75,0.00,,---,0.00,VWS V14.01,2013-07-29 14:02:00,
2013-07-29 10:08:00,86.5,77.2,30.11,West,275,0.0,0.0,74,0.00,,---,0.00,VWS V14.01,2013-07-29 14:08:00,
2013-07-29 10:10:00,86.6,76.9,30.11,West,274,0.0,0.0,73,0.00,,---,0.00,VWS V14.01,2013-07-29 14:10:00,
2013-07-29 10:13:00,86.7,75.3,30.11,West,260,0.0,0.0,69,0.00,,---,0.00,VWS V14.01,2013-07-29 14:13:00,
2013-07-29 10:18:00,86.7,75.3,30.11,ENE,78,0.0,0.0,69,0.00,,---,0.00,VWS V14.01,2013-07-29 14:18:00,
2013-07-29 10:20:00,86.7,75.3,30.11,ENE,78,0.0,0.0,69,0.00,,---,0.00,VWS V14.01,2013-07-29 14:20:00,
2013-07-29 10:23:00,87.2,75.8,30.11,East,101,0.0,0.0,69,0.00,,---,0.00,VWS V14.01,2013-07-29 14:23:00,
2013-07-29 10:28:00,87.4,74.7,30.11,ESE,106,0.0,0.0,66,0.00,,---,0.00,VWS V14.01,2013-07-29 14:28:00,
2013-07-29 10:30:00,87.3,74.6,30.11,ESE,102,0.0,0.0,66,0.00,,---,0.00,VWS V14.01,2013-07-29 14:30:00,
2013-07-29 10:33:00,87.4,75.6,30.11,East,80,0.0,1.0,68,0.00,,---,0.00,VWS V14.01,2013-07-29 14:33:00,
2013-07-29 10:38:00,87.3,75.4,30.11,ENE,76,0.0,1.0,68,0.00,,---,0.00,VWS V14.01,2013-07-29 14:38:00,
2013-07-29 10:40:00,87.3,75.4,30.11,ENE,77,0.0,1.0,68,0.00,,---,0.00,VWS V14.01,2013-07-29 14:40:00,
2013-07-29 10:43:00,88.1,76.2,30.11,East,89,0.0,0.0,68,0.00,,---,0.00,VWS V14.01,2013-07-29 14:43:00,
2013-07-29 10:48:00,88.7,75.9,30.11,East,86,0.0,0.0,66,0.00,,---,0.00,VWS V14.01,2013-07-29 14:48:00,
2013-07-29 10:50:00,88.7,76.8,30.11,East,86,0.0,0.0,68,0.00,,---,0.00,VWS V14.01,2013-07-29 14:50:00,
2013-07-29 10:53:00,89.1,75.3,30.11,ENE,78,0.0,0.0,64,0.00,,---,0.00,VWS V14.01,2013-07-29 14:53:00,
2013-07-29 10:59:00,89.2,75.4,30.11,East,81,0.0,0.0,64,0.00,,---,0.00,VWS V14.01,2013-07-29 14:59:00,
2013-07-29 11:00:00,89.1,74.9,30.11,ENE,71,0.0,0.0,63,0.00,,---,0.00,VWS V14.01,2013-07-29 15:00:00,
2013-07-29 11:04:00,89.3,75.1,30.11,West,280,0.0,0.0,63,0.00,,---,0.00,VWS V14.01,2013-07-29 15:04:00,
2013-07-29 11:09:00,89.3,75.5,30.12,East,83,0.0,0.0,64,0.00,,---,0.00,VWS V14.01,2013-07-29 15:09:00,
2013-07-29 11:10:00,89.3,75.5,30.12,East,83,0.0,0.0,64,0.00,,---,0.00,VWS V14.01,2013-07-29 15:10:00,
2013-07-29 11:14:00,89.6,77.6,30.12,East,84,0.0,0.0,68,0.00,,---,0.00,VWS V14.01,2013-07-29 15:14:00,
2013-07-29 11:19:00,90.0,75.7,30.12,ESE,107,0.0,0.0,63,0.00,,---,0.00,VWS V14.01,2013-07-29 15:19:00,
2013-07-29 11:20:00,90.1,75.8,30.12,ESE,107,0.0,0.0,63,0.00,,---,0.00,VWS V14.01,2013-07-29 15:20:00,
2013-07-29 11:24:00,90.0,76.2,30.12,ESE,107,0.0,0.0,64,0.00,,---,0.00,VWS V14.01,2013-07-29 15:24:00,
2013-07-29 11:29:00,89.9,75.6,30.12,ESE,107,0.0,0.0,63,0.00,,---,0.00,VWS V14.01,2013-07-29 15:29:00,
2013-07-29 11:30:00,89.9,74.7,30.12,ESE,108,0.0,0.0,61,0.00,,---,0.00,VWS V14.01,2013-07-29 15:30:00,
2013-07-29 11:34:00,90.5,74.7,30.11,NE,44,0.0,0.0,60,0.00,,---,0.00,VWS V14.01,2013-07-29 15:34:00,
2013-07-29 11:40:00,90.8,74.5,30.12,West,273,0.0,0.0,59,0.00,,---,0.00,VWS V14.01,2013-07-29 15:40:00,
2013-07-29 11:45:00,91.0,74.2,30.11,ESE,105,0.0,0.0,58,0.00,,---,0.00,VWS V14.01,2013-07-29 15:45:00,
2013-07-29 11:50:00,90.9,74.1,30.11,ESE,106,0.0,0.0,58,0.00,,---,0.00,VWS V14.01,2013-07-29 15:50:00,
2013-07-29 11:55:00,90.2,73.9,30.11,ESE,115,0.0,0.0,59,0.00,,---,0.00,VWS V14.01,2013-07-29 15:55:00,
2013-07-29 12:00:00,90.1,75.3,30.11,East,79,0.0,0.0,62,0.00,,---,0.00,VWS V14.01,2013-07-29 16:00:00,
2013-07-29 12:05:00,89.6,74.9,30.11,East,98,0.0,0.0,62,0.00,,---,0.00,VWS V14.01,2013-07-29 16:05:00,
2013-07-29 12:10:00,89.6,74.4,30.11,East,85,0.0,0.0,61,0.00,,---,0.00,VWS V14.01,2013-07-29 16:10:00,
2013-07-29 12:15:00,89.7,76.4,30.11,East,85,0.0,0.0,65,0.00,,---,0.00,VWS V14.01,2013-07-29 16:15:00,
2013-07-29 12:20:00,90.7,75.9,30.11,ESE,104,0.0,0.0,62,0.00,,---,0.00,VWS V14.01,2013-07-29 16:20:00,
2013-07-29 12:25:00,91.4,76.6,30.10,East,87,0.0,0.0,62,0.00,,---,0.00,VWS V14.01,2013-07-29 16:25:00,
2013-07-29 12:30:00,91.8,74.4,30.10,East,87,0.0,0.0,57,0.00,,---,0.00,VWS V14.01,2013-07-29 16:30:00,
2013-07-29 12:35:00,92.3,75.9,30.10,West,266,0.0,0.0,59,0.00,,---,0.00,VWS V14.01,2013-07-29 16:35:00,
2013-07-29 12:40:00,92.6,74.6,30.10,West,271,0.0,0.0,56,0.00,,---,0.00,VWS V14.01,2013-07-29 16:40:00,
2013-07-29 12:46:00,92.5,74.5,30.10,WSW,256,0.0,0.0,56,0.00,,---,0.00,VWS V14.01,2013-07-29 16:46:00,
2013-07-29 12:50:00,92.4,75.5,30.10,WNW,288,0.0,0.0,58,0.00,,---,0.00,VWS V14.01,2013-07-29 16:50:00,
2013-07-29 12:51:00,92.2,76.8,30.10,West,281,0.0,0.0,61,0.00,,---,0.00,VWS V14.01,2013-07-29 16:51:00,
2013-07-29 12:56:00,91.6,74.7,30.10,West,280,2.0,2.0,58,0.00,,---,0.00,VWS V14.01,2013-07-29 16:56:00,
2013-07-29 13:00:00,91.0,74.7,30.10,West,264,1.0,2.0,59,0.00,,---,0.00,VWS V14.01,2013-07-29 17:00:00,
2013-07-29 13:01:00,90.4,75.1,30.10,West,268,1.0,1.0,61,0.00,,---,0.00,VWS V14.01,2013-07-29 17:01:00,
2013-07-29 13:06:00,90.2,75.9,30.10,West,272,2.0,2.0,63,0.00,,---,0.00,VWS V14.01,2013-07-29 17:06:00,
2013-07-29 13:10:00,90.3,75.5,30.10,SSW,204,0.0,2.0,62,0.00,,---,0.00,VWS V14.01,2013-07-29 17:10:00,
2013-07-29 13:12:00,90.6,74.3,30.10,WSW,248,2.0,2.0,59,0.00,,---,0.00,VWS V14.01,2013-07-29 17:12:00,
2013-07-29 13:17:00,90.9,75.1,30.10,North,9,0.0,3.0,60,0.00,,---,0.00,VWS V14.01,2013-07-29 17:17:00,
2013-07-29 13:20:00,91.1,75.3,30.10,North,9,0.0,3.0,60,0.00,,---,0.00,VWS V14.01,2013-07-29 17:20:00,
2013-07-29 13:22:00,92.2,74.2,30.10,ESE,116,0.0,0.0,56,0.00,,---,0.00,VWS V14.01,2013-07-29 17:22:00,
2013-07-29 13:27:00,92.9,75.4,30.10,West,277,2.0,2.0,57,0.00,,---,0.00,VWS V14.01,2013-07-29 17:27:00,
2013-07-29 13:30:00,93.1,75.6,30.10,East,96,0.0,2.0,57,0.00,,---,0.00,VWS V14.01,2013-07-29 17:30:00,
2013-07-29 13:32:00,93.4,76.9,30.09,North,1,1.0,2.0,59,0.00,,---,0.00,VWS V14.01,2013-07-29 17:32:00,
2013-07-29 13:37:00,94.4,74.6,30.09,East,94,0.0,2.0,53,0.00,,---,0.00,VWS V14.01,2013-07-29 17:37:00,
2013-07-29 13:40:00,94.6,75.9,30.09,East,94,0.0,2.0,55,0.00,,---,0.00,VWS V14.01,2013-07-29 17:40:00,
2013-07-29 13:42:00,94.8,74.4,30.09,ESE,106,0.0,2.0,52,0.00,,---,0.00,VWS V14.01,2013-07-29 17:42:00,
2013-07-29 13:47:00,95.2,74.2,30.09,ENE,75,0.0,2.0,51,0.00,,---,0.00,VWS V14.01,2013-07-29 17:47:00,
2013-07-29 13:50:00,95.2,75.9,30.09,ESE,113,0.0,2.0,54,0.00,,---,0.00,VWS V14.01,2013-07-29 17:50:00,
2013-07-29 13:52:00,95.2,75.4,30.09,East,87,2.0,3.0,53,0.00,,---,0.00,VWS V14.01,2013-07-29 17:52:00,
2013-07-29 13:57:00,95.1,74.7,30.09,SW,231,0.0,3.0,52,0.00,,---,0.00,VWS V14.01,2013-07-29 17:57:00,
2013-07-29 14:00:00,95.2,76.5,30.09,SW,224,0.0,3.0,55,0.00,,---,0.00,VWS V14.01,2013-07-29 18:00:00,
2013-07-29 14:03:00,95.2,75.4,30.09,NW,312,1.0,2.0,53,0.00,,---,0.00,VWS V14.01,2013-07-29 18:03:00,
2013-07-29 14:08:00,95.3,74.9,30.09,NW,309,0.0,3.0,52,0.00,,---,0.00,VWS V14.01,2013-07-29 18:08:00,
2013-07-29 14:10:00,95.3,74.9,30.09,NW,309,0.0,3.0,52,0.00,,---,0.00,VWS V14.01,2013-07-29 18:10:00,
2013-07-29 14:13:00,95.1,76.4,30.09,ENE,76,0.0,0.0,55,0.00,,---,0.00,VWS V14.01,2013-07-29 18:13:00,
2013-07-29 14:18:00,95.2,74.8,30.09,WNW,285,0.0,2.0,52,0.00,,---,0.00,VWS V14.01,2013-07-29 18:18:00,
2013-07-29 14:20:00,95.2,74.8,30.09,WNW,285,0.0,2.0,52,0.00,,---,0.00,VWS V14.01,2013-07-29 18:20:00,
2013-07-29 14:23:00,95.3,74.3,30.09,SE,124,1.0,2.0,51,0.00,,---,0.00,VWS V14.01,2013-07-29 18:23:00,
2013-07-29 14:28:00,95.4,75.0,30.09,East,99,1.0,2.0,52,0.00,,---,0.00,VWS V14.01,2013-07-29 18:28:00,
2013-07-29 14:30:00,95.4,75.0,30.09,East,98,2.0,2.0,52,0.00,,---,0.00,VWS V14.01,2013-07-29 18:30:00,
2013-07-29 14:33:00,95.4,75.0,30.08,NW,326,0.0,2.0,52,0.00,,---,0.00,VWS V14.01,2013-07-29 18:33:00,
2013-07-29 14:38:00,95.9,73.1,30.08,WNW,287,0.0,2.0,48,0.00,,---,0.00,VWS V14.01,2013-07-29 18:38:00,
2013-07-29 14:40:00,95.9,73.1,30.08,WNW,287,0.0,2.0,48,0.00,,---,0.00,VWS V14.01,2013-07-29 18:40:00,
2013-07-29 14:43:00,96.4,74.7,30.08,East,82,2.0,2.0,50,0.00,,---,0.00,VWS V14.01,2013-07-29 18:43:00,
2013-07-29 14:48:00,94.8,73.9,30.08,ESE,110,1.0,3.0,51,0.00,,---,0.00,VWS V14.01,2013-07-29 18:48:00,
2013-07-29 14:50:00,94.8,73.9,30.08,ESE,110,1.0,3.0,51,0.00,,---,0.00,VWS V14.01,2013-07-29 18:50:00,
2013-07-29 14:53:00,92.7,72.5,30.08,East,91,3.0,5.0,52,0.00,,---,0.00,VWS V14.01,2013-07-29 18:53:00,
2013-07-29 14:58:00,91.6,73.7,30.08,ESE,107,1.0,5.0,56,0.00,,---,0.00,VWS V14.01,2013-07-29 18:58:00,
2013-07-29 15:00:00,91.6,73.7,30.08,ESE,107,1.0,5.0,56,0.00,,---,0.00,VWS V14.01,2013-07-29 19:00:00,
2013-07-29 15:03:00,91.8,74.9,30.08,ENE,77,1.0,2.0,58,0.00,,---,0.00,VWS V14.01,2013-07-29 19:03:00,
2013-07-29 15:08:00,93.0,75.0,30.08,SSE,148,2.0,2.0,56,0.00,,---,0.00,VWS V14.01,2013-07-29 19:08:00,
2013-07-29 15:10:00,93.0,75.0,30.08,SSE,148,2.0,3.0,56,0.00,,---,0.00,VWS V14.01,2013-07-29 19:10:00,
2013-07-29 15:13:00,93.8,74.1,30.08,ESE,110,2.0,3.0,53,0.00,,---,0.00,VWS V14.01,2013-07-29 19:13:00,
2013-07-29 15:18:00,94.0,73.1,30.07,East,98,0.0,0.0,51,0.00,,---,0.00,VWS V14.01,2013-07-29 19:18:00,
2013-07-29 15:20:00,94.0,73.1,30.07,East,98,0.0,4.0,51,0.00,,---,0.00,VWS V14.01,2013-07-29 19:20:00,
2013-07-29 15:23:00,93.4,72.6,30.07,East,83,2.0,3.0,51,0.00,,---,0.00,VWS V14.01,2013-07-29 19:23:00,
2013-07-29 15:29:00,92.5,72.9,30.07,ENE,71,0.0,1.0,53,0.00,,---,0.00,VWS V14.01,2013-07-29 19:29:00,
2013-07-29 15:30:00,92.5,71.8,30.07,ENE,71,0.0,3.0,51,0.00,,---,0.00,VWS V14.01,2013-07-29 19:30:00,
2013-07-29 15:34:00,93.4,73.2,30.07,ENE,65,2.0,2.0,52,0.00,,---,0.00,VWS V14.01,2013-07-29 19:34:00,
2013-07-29 15:39:00,94.1,74.4,30.07,ESE,116,1.0,1.0,53,0.00,,---,0.00,VWS V14.01,2013-07-29 19:39:00,
2013-07-29 15:40:00,94.0,74.8,30.07,West,266,0.0,3.0,54,0.00,,---,0.00,VWS V14.01,2013-07-29 19:40:00,
2013-07-29 15:44:00,94.9,73.4,30.07,ENE,58,1.0,2.0,50,0.00,,---,0.00,VWS V14.01,2013-07-29 19:44:00,
2013-07-29 15:49:00,95.5,72.7,30.06,SW,215,0.0,1.0,48,0.00,,---,0.00,VWS V14.01,2013-07-29 19:49:00,
2013-07-29 15:50:00,95.3,73.7,30.06,SSW,205,1.0,2.0,50,0.00,,---,0.00,VWS V14.01,2013-07-29 19:50:00,
2013-07-29 15:55:00,95.8,72.3,30.06,NE,46,0.0,3.0,47,0.00,,---,0.00,VWS V14.01,2013-07-29 19:55:00,
2013-07-29 16:00:00,96.2,74.6,30.06,NW,326,0.0,2.0,50,0.00,,---,0.00,VWS V14.01,2013-07-29 20:00:00,
2013-07-29 16:05:00,96.1,73.2,30.06,East,94,0.0,2.0,48,0.00,,---,0.00,VWS V14.01,2013-07-29 20:05:00,
2013-07-29 16:10:00,96.1,72.6,30.06,East,101,1.0,3.0,47,0.00,,---,0.00,VWS V14.01,2013-07-29 20:10:00,
2013-07-29 16:15:00,95.9,71.2,30.06,East,101,0.0,3.0,45,0.00,,---,0.00,VWS V14.01,2013-07-29 20:15:00,
2013-07-29 16:20:00,95.7,72.3,30.06,ESE,104,0.0,3.0,47,0.00,,---,0.00,VWS V14.01,2013-07-29 20:20:00,
2013-07-29 16:21:00,96.1,72.0,30.05,NW,311,0.0,1.0,46,0.00,,---,0.00,VWS V14.01,2013-07-29 20:21:00,
2013-07-29 16:26:00,96.7,71.9,30.05,East,99,2.0,2.0,45,0.00,,---,0.00,VWS V14.01,2013-07-29 20:26:00,
2013-07-29 16:30:00,96.5,71.7,30.05,East,87,1.0,3.0,45,0.00,,---,0.00,VWS V14.01,2013-07-29 20:30:00,
2013-07-29 16:31:00,96.0,71.2,30.05,East,86,2.0,2.0,45,0.00,,---,0.00,VWS V14.01,2013-07-29 20:31:00,
2013-07-29 16:36:00,95.9,72.4,30.05,East,83,1.0,2.0,47,0.00,,---,0.00,VWS V14.01,2013-07-29 20:36:00,
2013-07-29 16:40:00,96.1,72.6,30.05,ESE,102,2.0,2.0,47,0.00,,---,0.00,VWS V14.01,2013-07-29 20:40:00,
2013-07-29 16:41:00,95.8,71.1,30.05,East,98,0.0,3.0,45,0.00,,---,0.00,VWS V14.01,2013-07-29 20:41:00,
2013-07-29 16:46:00,95.2,70.5,30.05,ENE,73,3.0,5.0,45,0.00,,---,0.00,VWS V14.01,2013-07-29 20:46:00,
2013-07-29 16:50:00,94.8,70.2,30.05,ENE,78,0.0,5.0,45,0.00,,---,0.00,VWS V14.01,2013-07-29 20:50:00,
2013-07-29 16:51:00,94.4,69.8,30.05,East,94,1.0,4.0,45,0.00,,---,0.00,VWS V14.01,2013-07-29 20:51:00,
2013-07-29 16:57:00,94.6,70.0,30.05,East,91,1.0,4.0,45,0.00,,---,0.00,VWS V14.01,2013-07-29 20:57:00,
2013-07-29 17:00:00,94.7,69.4,30.05,East,98,0.0,4.0,44,0.00,,---,0.00,VWS V14.01,2013-07-29 21:00:00,
2013-07-29 17:02:00,94.7,69.4,30.05,East,89,1.0,3.0,44,0.00,,---,0.00,VWS V14.01,2013-07-29 21:02:00,
2013-07-29 17:07:00,94.5,69.2,30.05,East,91,0.0,3.0,44,0.00,,---,0.00,VWS V14.01,2013-07-29 21:07:00,
2013-07-29 17:10:00,94.5,69.9,30.05,SE,130,0.0,3.0,45,0.00,,---,0.00,VWS V14.01,2013-07-29 21:10:00,
2013-07-29 17:12:00,94.9,70.2,30.05,East,79,0.0,3.0,45,0.00,,---,0.00,VWS V14.01,2013-07-29 21:12:00,
2013-07-29 17:17:00,95.5,68.1,30.05,NNE,22,0.0,3.0,41,0.00,,---,0.00,VWS V14.01,2013-07-29 21:17:00,
2013-07-29 17:20:00,95.6,68.9,30.05,NW,307,0.0,3.0,42,0.00,,---,0.00,VWS V14.01,2013-07-29 21:20:00,
2013-07-29 17:22:00,96.2,68.7,30.05,West,280,1.0,2.0,41,0.00,,---,0.00,VWS V14.01,2013-07-29 21:22:00,
2013-07-29 17:27:00,96.0,69.9,30.05,East,96,2.0,3.0,43,0.00,,---,0.00,VWS V14.01,2013-07-29 21:27:00,
2013-07-29 17:30:00,95.7,68.9,30.05,East,85,1.0,4.0,42,0.00,,---,0.00,VWS V14.01,2013-07-29 21:30:00,
2013-07-29 17:32:00,95.2,68.5,30.05,East,101,2.0,4.0,42,0.00,,---,0.00,VWS V14.01,2013-07-29 21:32:00,
2013-07-29 17:37:00,95.0,70.3,30.05,East,98,0.0,4.0,45,0.00,,---,0.00,VWS V14.01,2013-07-29 21:37:00,
2013-07-29 17:40:00,95.0,70.3,30.05,East,99,0.0,4.0,45,0.00,,---,0.00,VWS V14.01,2013-07-29 21:40:00,
2013-07-29 17:42:00,94.8,69.5,30.05,South,186,2.0,2.0,44,0.00,,---,0.00,VWS V14.01,2013-07-29 21:42:00,
2013-07-29 17:47:00,95.1,70.4,30.05,East,95,1.0,3.0,45,0.00,,---,0.00,VWS V14.01,2013-07-29 21:47:00,
2013-07-29 17:50:00,95.0,69.7,30.05,East,94,2.0,3.0,44,0.00,,---,0.00,VWS V14.01,2013-07-29 21:50:00,
2013-07-29 17:52:00,94.7,70.1,30.05,East,79,1.0,3.0,45,0.00,,---,0.00,VWS V14.01,2013-07-29 21:52:00,
2013-07-29 17:57:00,94.5,71.2,30.05,East,84,3.0,3.0,47,0.00,,---,0.00,VWS V14.01,2013-07-29 21:57:00,
2013-07-29 18:00:00,94.4,71.1,30.05,ESE,102,3.0,3.0,47,0.00,,---,0.00,VWS V14.01,2013-07-29 22:00:00,
2013-07-29 18:03:00,94.5,71.8,30.05,East,99,1.0,3.0,48,0.00,,---,0.00,VWS V14.01,2013-07-29 22:03:00,
2013-07-29 18:08:00,94.7,71.3,30.05,East,79,0.0,3.0,47,0.00,,---,0.00,VWS V14.01,2013-07-29 22:08:00,
2013-07-29 18:10:00,94.7,71.3,30.05,SE,134,0.0,3.0,47,0.00,,---,0.00,VWS V14.01,2013-07-29 22:10:00,
2013-07-29 18:13:00,94.5,70.5,30.05,ESE,123,3.0,4.0,46,0.00,,---,0.00,VWS V14.01,2013-07-29 22:13:00,
2013-07-29 18:18:00,94.3,70.4,30.05,East,94,2.0,4.0,46,0.00,,---,0.00,VWS V14.01,2013-07-29 22:18:00,
2013-07-29 18:20:00,94.3,70.4,30.05,East,94,1.0,4.0,46,0.00,,---,0.00,VWS V14.01,2013-07-29 22:20:00,
2013-07-29 18:23:00,94.1,70.8,30.06,East,101,2.0,2.0,47,0.00,,---,0.00,VWS V14.01,2013-07-29 22:23:00,
2013-07-29 18:28:00,94.3,71.0,30.06,ESE,108,0.0,3.0,47,0.00,,---,0.00,VWS V14.01,2013-07-29 22:28:00,
2013-07-29 18:30:00,94.3,71.0,30.06,ESE,102,1.0,3.0,47,0.00,,---,0.00,VWS V14.01,2013-07-29 22:30:00,
2013-07-29 18:33:00,93.7,70.4,30.06,East,95,1.0,3.0,47,0.00,,---,0.00,VWS V14.01,2013-07-29 22:33:00,
2013-07-29 18:38:00,93.0,70.4,30.06,ESE,104,2.0,3.0,48,0.00,,---,0.00,VWS V14.01,2013-07-29 22:38:00,
2013-07-29 18:40:00,92.9,70.3,30.06,ESE,110,2.0,3.0,48,0.00,,---,0.00,VWS V14.01,2013-07-29 22:40:00,
2013-07-29 18:43:00,92.2,70.3,30.06,East,94,0.0,3.0,49,0.00,,---,0.00,VWS V14.01,2013-07-29 22:43:00,
2013-07-29 18:48:00,91.7,69.8,30.06,East,99,1.0,3.0,49,0.00,,---,0.00,VWS V14.01,2013-07-29 22:48:00,
2013-07-29 18:50:00,91.7,69.8,30.06,East,99,1.0,3.0,49,0.00,,---,0.00,VWS V14.01,2013-07-29 22:50:00,
2013-07-29 18:53:00,91.3,68.9,30.06,ESE,105,0.0,3.0,48,0.00,,---,0.00,VWS V14.01,2013-07-29 22:53:00,
2013-07-29 18:58:00,91.0,68.6,30.06,East,98,0.0,0.0,48,0.00,,---,0.00,VWS V14.01,2013-07-29 22:58:00,
2013-07-29 19:00:00,91.0,68.6,30.06,East,98,0.0,3.0,48,0.00,,---,0.00,VWS V14.01,2013-07-29 23:00:00,
2013-07-29 19:03:00,90.8,69.6,30.06,ESE,103,0.0,2.0,50,0.00,,---,0.00,VWS V14.01,2013-07-29 23:03:00,
2013-07-29 19:08:00,90.3,74.0,30.06,East,94,2.0,4.0,59,0.00,,---,0.00,VWS V14.01,2013-07-29 23:08:00,
2013-07-29 19:10:00,90.3,74.0,30.06,East,96,4.0,5.0,59,0.00,,---,0.00,VWS V14.01,2013-07-29 23:10:00,
2013-07-29 19:14:00,88.7,75.4,30.07,East,86,2.0,5.0,65,0.00,,---,0.00,VWS V14.01,2013-07-29 23:14:00,
2013-07-29 19:19:00,87.9,75.6,30.07,ENE,68,2.0,4.0,67,0.00,,---,0.00,VWS V14.01,2013-07-29 23:19:00,
2013-07-29 19:20:00,88.0,75.7,30.07,NNE,25,1.0,5.0,67,0.00,,---,0.00,VWS V14.01,2013-07-29 23:20:00,
2013-07-29 19:24:00,87.2,75.8,30.07,East,96,0.0,4.0,69,0.00,,---,0.00,VWS V14.01,2013-07-29 23:24:00,
2013-07-29 19:29:00,86.5,75.6,30.07,East,94,1.0,3.0,70,0.00,,---,0.00,VWS V14.01,2013-07-29 23:29:00,
2013-07-29 19:30:00,86.6,75.7,30.07,East,89,1.0,5.0,70,0.00,,---,0.00,VWS V14.01,2013-07-29 23:30:00,
2013-07-29 19:34:00,86.1,76.0,30.07,South,172,3.0,4.0,72,0.00,,---,0.00,VWS V14.01,2013-07-29 23:34:00,
2013-07-29 19:39:00,85.6,76.0,30.08,ESE,102,2.0,3.0,73,0.00,,---,0.00,VWS V14.01,2013-07-29 23:39:00,
2013-07-29 19:40:00,85.6,76.0,30.07,ENE,58,3.0,4.0,73,0.00,,---,0.00,VWS V14.01,2013-07-29 23:40:00,
2013-07-29 19:44:00,85.0,74.6,30.08,East,85,4.0,6.0,71,0.00,,---,0.00,VWS V14.01,2013-07-29 23:44:00,
2013-07-29 19:50:00,84.6,74.6,30.08,East,100,2.0,5.0,72,0.00,,---,0.00,VWS V14.01,2013-07-29 23:50:00,
2013-07-29 19:55:00,84.3,74.3,30.09,East,94,0.0,5.0,72,0.00,,---,0.00,VWS V14.01,2013-07-29 23:55:00,
2013-07-29 20:00:00,84.2,74.2,30.09,East,83,0.0,3.0,72,0.00,,---,0.00,VWS V14.01,2013-07-30 00:00:00,
2013-07-29 20:05:00,83.9,73.9,30.09,ESE,108,1.0,5.0,72,0.00,,---,0.00,VWS V14.01,2013-07-30 00:05:00,
2013-07-29 20:10:00,83.7,73.7,30.09,ESE,111,1.0,2.0,72,0.00,,---,0.00,VWS V14.01,2013-07-30 00:10:00,
2013-07-29 20:15:00,83.5,73.9,30.09,ESE,115,1.0,3.0,73,0.00,,---,0.00,VWS V14.01,2013-07-30 00:15:00,
2013-07-29 20:20:00,83.4,73.8,30.09,East,96,0.0,2.0,73,0.00,,---,0.00,VWS V14.01,2013-07-30 00:20:00,
2013-07-29 20:25:00,83.2,73.7,30.10,East,98,1.0,3.0,73,0.00,,---,0.00,VWS V14.01,2013-07-30 00:25:00,
2013-07-29 20:30:00,83.0,73.5,30.10,SE,139,1.0,2.0,73,0.00,,---,0.00,VWS V14.01,2013-07-30 00:30:00,
2013-07-29 20:35:00,82.8,73.3,30.10,ESE,105,3.0,4.0,73,0.00,,---,0.00,VWS V14.01,2013-07-30 00:35:00,
2013-07-29 20:40:00,82.7,73.2,30.10,East,94,0.0,1.0,73,0.00,,---,0.00,VWS V14.01,2013-07-30 00:40:00,
2013-07-29 20:45:00,82.7,73.6,30.10,East,91,0.0,2.0,74,0.00,,---,0.00,VWS V14.01,2013-07-30 00:45:00,
2013-07-29 20:50:00,82.6,73.5,30.10,ESE,105,1.0,2.0,74,0.00,,---,0.00,VWS V14.01,2013-07-30 00:50:00,
2013-07-29 20:51:00,82.5,73.4,30.10,SSE,158,0.0,1.0,74,0.00,,---,0.00,VWS V14.01,2013-07-30 00:51:00,
2013-07-29 20:56:00,82.3,73.6,30.10,ESE,115,1.0,1.0,75,0.00,,---,0.00,VWS V14.01,2013-07-30 00:56:00,
2013-07-29 21:00:00,82.3,73.6,30.10,ESE,109,0.0,1.0,75,0.00,,---,0.00,VWS V14.01,2013-07-30 01:00:00,
2013-07-29 21:01:00,82.2,73.5,30.10,ESE,103,0.0,1.0,75,0.00,,---,0.00,VWS V14.01,2013-07-30 01:01:00,
2013-07-29 21:06:00,82.1,73.8,30.10,East,96,1.0,1.0,76,0.00,,---,0.00,VWS V14.01,2013-07-30 01:06:00,
2013-07-29 21:10:00,82.0,73.7,30.10,East,94,0.0,1.0,76,0.00,,---,0.00,VWS V14.01,2013-07-30 01:10:00,
2013-07-29 21:11:00,81.9,73.6,30.11,East,94,0.0,1.0,76,0.00,,---,0.00,VWS V14.01,2013-07-30 01:11:00,
2013-07-29 21:16:00,81.8,73.9,30.10,East,94,0.0,1.0,77,0.00,,---,0.00,VWS V14.01,2013-07-30 01:16:00,
2013-07-29 21:20:00,81.7,73.8,30.10,East,94,0.0,1.0,77,0.00,,---,0.00,VWS V14.01,2013-07-30 01:20:00,
2013-07-29 21:22:00,81.6,74.1,30.10,East,94,0.0,1.0,78,0.00,,---,0.00,VWS V14.01,2013-07-30 01:22:00,
2013-07-29 21:27:00,81.5,74.0,30.11,East,94,0.0,1.0,78,0.00,,---,0.00,VWS V14.01,2013-07-30 01:27:00,
2013-07-29 21:30:00,81.5,74.0,30.11,East,94,0.0,1.0,78,0.00,,---,0.00,VWS V14.01,2013-07-30 01:30:00,
2013-07-29 21:32:00,81.3,73.8,30.11,East,94,0.0,0.0,78,0.00,,---,0.00,VWS V14.01,2013-07-30 01:32:00,
2013-07-29 21:37:00,81.0,73.9,30.12,East,94,0.0,0.0,79,0.00,,---,0.00,VWS V14.01,2013-07-30 01:37:00,
2013-07-29 21:40:00,80.8,73.7,30.12,West,273,0.0,1.0,79,0.00,,---,0.00,VWS V14.01,2013-07-30 01:40:00,
2013-07-29 21:42:00,80.7,73.6,30.13,West,272,0.0,1.0,79,0.00,,---,0.00,VWS V14.01,2013-07-30 01:42:00,
2013-07-29 21:47:00,80.6,73.5,30.13,West,273,0.0,1.0,79,0.00,,---,0.00,VWS V14.01,2013-07-30 01:47:00,
2013-07-29 21:50:00,80.5,73.4,30.13,West,272,0.0,1.0,79,0.00,,---,0.00,VWS V14.01,2013-07-30 01:50:00,
2013-07-29 21:52:00,80.4,73.3,30.12,West,272,0.0,0.0,79,0.00,,---,0.00,VWS V14.01,2013-07-30 01:52:00,
2013-07-29 21:57:00,80.3,73.6,30.12,West,273,0.0,1.0,80,0.00,,---,0.00,VWS V14.01,2013-07-30 01:57:00,
2013-07-29 22:00:00,80.2,73.5,30.12,West,272,0.0,1.0,80,0.00,,---,0.00,VWS V14.01,2013-07-30 02:00:00,
2013-07-29 22:02:00,80.1,73.4,30.13,West,273,0.0,0.0,80,0.00,,---,0.00,VWS V14.01,2013-07-30 02:02:00,
2013-07-29 22:07:00,79.9,73.2,30.13,West,273,0.0,1.0,80,0.00,,---,0.00,VWS V14.01,2013-07-30 02:07:00,
2013-07-29 22:10:00,79.9,73.2,30.13,West,273,0.0,1.0,80,0.00,,---,0.00,VWS V14.01,2013-07-30 02:10:00,
2013-07-29 22:12:00,80.0,73.3,30.14,West,272,0.0,1.0,80,0.00,,---,0.00,VWS V14.01,2013-07-30 02:12:00,
2013-07-29 22:17:00,80.0,73.3,30.13,West,273,0.0,1.0,80,0.00,,---,0.00,VWS V14.01,2013-07-30 02:17:00,
2013-07-29 22:20:00,80.0,73.3,30.13,West,273,0.0,1.0,80,0.00,,---,0.00,VWS V14.01,2013-07-30 02:20:00,
2013-07-29 22:22:00,79.9,73.6,30.13,West,273,0.0,0.0,81,0.00,,---,0.00,VWS V14.01,2013-07-30 02:22:00,
2013-07-29 22:28:00,79.9,73.6,30.14,West,272,0.0,0.0,81,0.00,,---,0.00,VWS V14.01,2013-07-30 02:28:00,
2013-07-29 22:30:00,79.9,73.6,30.14,West,273,0.0,0.0,81,0.00,,---,0.00,VWS V14.01,2013-07-30 02:30:00,
2013-07-29 22:33:00,79.8,73.4,30.14,West,273,0.0,0.0,81,0.00,,---,0.00,VWS V14.01,2013-07-30 02:33:00,
2013-07-29 22:38:00,79.9,73.6,30.14,West,273,0.0,0.0,81,0.00,,---,0.00,VWS V14.01,2013-07-30 02:38:00,
2013-07-29 22:40:00,79.9,73.6,30.14,West,273,0.0,0.0,81,0.00,,---,0.00,VWS V14.01,2013-07-30 02:40:00,
2013-07-29 22:43:00,79.9,73.6,30.14,West,273,0.0,0.0,81,0.00,,---,0.00,VWS V14.01,2013-07-30 02:43:00,
2013-07-29 22:48:00,79.9,73.6,30.14,West,272,0.0,0.0,81,0.00,,---,0.00,VWS V14.01,2013-07-30 02:48:00,
2013-07-29 22:50:00,79.9,73.6,30.14,West,272,0.0,0.0,81,0.00,,---,0.00,VWS V14.01,2013-07-30 02:50:00,
2013-07-29 22:53:00,79.8,73.4,30.14,West,273,0.0,0.0,81,0.00,,---,0.00,VWS V14.01,2013-07-30 02:53:00,
2013-07-29 22:58:00,79.6,73.3,30.14,West,273,0.0,0.0,81,0.00,,---,0.00,VWS V14.01,2013-07-30 02:58:00,
2013-07-29 23:00:00,79.6,73.3,30.14,West,272,0.0,0.0,81,0.00,,---,0.00,VWS V14.01,2013-07-30 03:00:00,
2013-07-29 23:03:00,79.6,73.3,30.13,West,272,0.0,0.0,81,0.00,,---,0.00,VWS V14.01,2013-07-30 03:03:00,
2013-07-29 23:09:00,79.6,73.3,30.14,West,272,0.0,0.0,81,0.00,,---,0.00,VWS V14.01,2013-07-30 03:09:00,
2013-07-29 23:10:00,79.6,73.3,30.13,West,273,0.0,0.0,81,0.00,,---,0.00,VWS V14.01,2013-07-30 03:10:00,
2013-07-29 23:14:00,79.6,73.3,30.14,West,273,0.0,0.0,81,0.00,,---,0.00,VWS V14.01,2013-07-30 03:14:00,
2013-07-29 23:19:00,79.4,73.1,30.14,West,273,0.0,0.0,81,0.00,,---,0.00,VWS V14.01,2013-07-30 03:19:00,
2013-07-29 23:20:00,79.4,73.1,30.14,West,272,0.0,0.0,81,0.00,,---,0.00,VWS V14.01,2013-07-30 03:20:00,
2013-07-29 23:24:00,79.2,72.9,30.14,West,273,0.0,0.0,81,0.00,,---,0.00,VWS V14.01,2013-07-30 03:24:00,
2013-07-29 23:29:00,79.1,73.1,30.14,West,273,0.0,0.0,82,0.00,,---,0.00,VWS V14.01,2013-07-30 03:29:00,
2013-07-29 23:30:00,79.1,73.1,30.14,West,272,0.0,0.0,82,0.00,,---,0.00,VWS V14.01,2013-07-30 03:30:00,
2013-07-29 23:34:00,79.0,72.7,30.15,West,272,0.0,0.0,81,0.00,,---,0.00,VWS V14.01,2013-07-30 03:34:00,
2013-07-29 23:39:00,79.0,72.7,30.15,West,273,0.0,0.0,81,0.00,,---,0.00,VWS V14.01,2013-07-30 03:39:00,
2013-07-29 23:40:00,79.0,72.7,30.15,West,273,0.0,0.0,81,0.00,,---,0.00,VWS V14.01,2013-07-30 03:40:00,
2013-07-29 23:44:00,79.2,72.9,30.14,West,272,0.0,0.0,81,0.00,,---,0.00,VWS V14.01,2013-07-30 03:44:00,
2013-07-29 23:50:00,79.2,72.9,30.14,East,96,0.0,1.0,81,0.00,,---,0.00,VWS V14.01,2013-07-30 03:50:00,
2013-07-29 23:55:00,79.1,72.8,30.15,East,81,0.0,1.0,81,0.00,,---,0.00,VWS V14.01,2013-07-30 03:55:00,